createdAt,value
2023-02-23T21:52:51.248Z,99463.12
2023-02-23T21:53:58.425Z,99453.54
2023-02-23T21:54:37.646Z,99450.48
2023-02-23T21:55:21.938Z,99450.80
2023-02-23T21:55:56.184Z,99448.02
2023-02-23T21:56:40.028Z,99443.92
2023-02-23T21:57:16.173Z,99447.20
2023-02-23T21:57:49.680Z,99443.48
2023-02-23T21:58:23.139Z,99443.63
2023-02-23T21:58:56.459Z,99441.27
2023-02-23T21:59:29.744Z,99441.02
2023-02-23T22:00:03.485Z,99439.40
2023-02-23T22:00:56.848Z,99440.06
2023-02-23T22:01:31.905Z,99437.11
2023-02-23T22:02:04.980Z,99438.23
2023-02-23T22:02:41.502Z,99432.06
2023-02-23T22:03:14.589Z,99433.17
2023-02-23T22:03:47.951Z,99431.08
2023-02-23T22:04:21.022Z,99436.88
2023-02-23T22:04:54.209Z,99431.33
2023-02-23T22:05:27.242Z,99434.17
2023-02-23T22:06:01.079Z,99429.86
2023-02-23T22:06:40.691Z,99427.77
2023-02-23T22:07:14.289Z,99428.91
2023-02-23T22:07:52.370Z,99422.65
2023-02-23T22:08:25.858Z,99426.17
2023-02-23T22:08:59.034Z,99422.52
2023-02-23T22:09:32.316Z,99420.68
2023-02-23T22:10:05.810Z,99423.67
2023-02-23T22:10:38.981Z,99419.63
2023-02-23T22:11:24.980Z,99415.76
2023-02-23T22:11:58.140Z,99412.62
2023-02-23T22:12:32.853Z,99412.70
2023-02-23T22:13:06.025Z,99412.15
2023-02-23T22:13:39.041Z,99414.39
2023-02-23T22:14:12.266Z,99410.34
2023-02-23T22:14:45.556Z,99412.30
2023-02-23T22:15:18.840Z,99409.81
2023-02-23T22:15:59.025Z,99409.17
2023-02-23T22:16:39.631Z,99410.81
2023-02-23T22:17:13.117Z,99404.60
2023-02-23T22:17:46.611Z,99407.86
2023-02-23T22:18:19.983Z,99405.11
2023-02-23T22:18:53.136Z,99408.15
2023-02-23T22:19:27.165Z,99404.16
2023-02-23T22:20:00.336Z,99405.14
2023-02-23T22:20:33.934Z,99406.44
2023-02-23T22:21:08.247Z,99401.58
2023-02-23T22:21:44.952Z,99405.38
2023-02-23T22:22:20.330Z,99402.15
2023-02-23T22:22:53.723Z,99399.92
2023-02-23T22:23:28.003Z,99401.30
2023-02-23T22:24:05.533Z,99400.45
2023-02-23T22:24:39.377Z,99400.83
2023-02-23T22:25:12.772Z,99399.98
2023-02-23T22:25:47.272Z,99400.73
2023-02-23T22:26:20.857Z,99400.33
2023-02-23T22:26:55.161Z,99400.86
2023-02-23T22:27:28.660Z,99398.86
2023-02-23T22:28:02.160Z,99400.98
2023-02-23T22:28:35.411Z,99399.92
2023-02-23T22:29:10.356Z,99399.70
2023-02-23T22:29:44.123Z,99397.70
2023-02-23T22:30:20.525Z,99397.17
2023-02-23T22:30:55.735Z,99396.36
2023-02-23T22:31:29.195Z,99396.15
2023-02-23T22:32:02.755Z,99395.63
2023-02-23T22:32:36.053Z,99396.12
2023-02-23T22:33:09.501Z,99393.97
2023-02-23T22:33:43.645Z,99395.64
2023-02-23T22:34:17.025Z,99390.89
2023-02-23T22:34:50.263Z,99391.27
2023-02-23T22:35:23.372Z,99387.81
2023-02-23T22:35:58.716Z,99389.77
2023-02-23T22:36:34.239Z,99387.55
2023-02-23T22:37:07.720Z,99392.00
2023-02-23T22:37:41.326Z,99386.77
2023-02-23T22:38:14.689Z,99388.17
2023-02-23T22:38:47.975Z,99384.93
2023-02-23T22:39:21.396Z,99386.23
2023-02-23T22:39:54.734Z,99386.52
2023-02-23T22:40:28.940Z,99382.36
2023-02-23T22:41:02.320Z,99382.14
2023-02-23T22:41:42.568Z,99382.10
2023-02-23T22:42:15.718Z,99384.02
2023-02-23T22:42:50.257Z,99382.61
2023-02-23T22:43:23.463Z,99382.52
2023-02-23T22:43:57.241Z,99381.49
2023-02-23T22:44:30.600Z,99379.92
2023-02-23T22:45:06.457Z,99379.13
2023-02-23T22:45:42.126Z,99377.29
2023-02-23T22:46:16.693Z,99377.81
2023-02-23T22:46:50.120Z,99374.95
2023-02-23T22:47:24.190Z,99373.94
2023-02-23T22:48:01.748Z,99374.80
2023-02-23T22:48:35.860Z,99374.31
2023-02-23T22:49:10.983Z,99370.96
2023-02-23T22:49:44.459Z,99369.89
2023-02-23T22:50:19.509Z,99369.60
2023-02-23T22:50:52.863Z,99368.27
2023-02-23T22:51:31.462Z,99366.15
2023-02-23T22:52:07.947Z,99367.23
2023-02-23T22:52:43.567Z,99366.77
2023-02-23T22:53:20.010Z,99367.63
2023-02-23T22:54:13.711Z,99362.59
2023-02-23T22:54:51.466Z,99364.00
2023-02-23T22:55:27.600Z,99361.94
2023-02-23T22:56:00.985Z,99360.01
2023-02-23T22:56:42.510Z,99356.81
2023-02-23T22:57:15.743Z,99359.52
2023-02-23T22:57:51.165Z,99357.95
2023-02-23T22:58:27.291Z,99352.42
2023-02-23T22:59:08.437Z,99356.39
2023-02-23T22:59:54.594Z,99353.89
2023-02-23T23:00:29.245Z,99351.89
2023-02-23T23:01:04.512Z,99353.48
2023-02-23T23:01:38.992Z,99348.42
2023-02-23T23:02:15.336Z,99352.48
2023-02-23T23:02:48.643Z,99353.68
2023-02-23T23:03:21.917Z,99347.73
2023-02-23T23:04:18.826Z,99347.36
2023-02-23T23:05:00.015Z,99345.30
2023-02-23T23:05:33.356Z,99346.61
2023-02-23T23:06:08.686Z,99346.01
2023-02-23T23:06:47.946Z,99347.98
2023-02-23T23:07:29.523Z,99343.25
2023-02-23T23:08:02.805Z,99340.71
2023-02-23T23:08:38.948Z,99342.23
2023-02-23T23:09:12.542Z,99340.16
2023-02-23T23:09:52.077Z,99337.41
2023-02-23T23:10:49.609Z,99337.94
2023-02-23T23:11:26.891Z,99337.24
2023-02-23T23:12:14.711Z,99335.12
2023-02-23T23:12:49.017Z,99329.77
2023-02-23T23:13:32.038Z,99329.02
2023-02-23T23:14:10.446Z,99330.31
2023-02-23T23:14:44.109Z,99327.02
2023-02-23T23:15:19.536Z,99330.64
2023-02-23T23:16:07.553Z,99328.48
2023-02-23T23:16:51.206Z,99327.08
2023-02-23T23:17:24.703Z,99323.64
2023-02-23T23:17:58.153Z,99320.61
2023-02-23T23:18:33.996Z,99326.46
2023-02-23T23:19:12.367Z,99322.84
2023-02-23T23:19:48.782Z,99320.29
2023-02-23T23:20:25.988Z,99322.89
2023-02-23T23:21:02.690Z,99322.58
2023-02-23T23:21:36.276Z,99318.39
2023-02-23T23:22:14.485Z,99321.01
2023-02-23T23:22:50.109Z,99319.50
2023-02-23T23:23:26.226Z,99320.20
2023-02-23T23:24:13.600Z,99318.95
2023-02-23T23:24:49.344Z,99315.37
2023-02-23T23:25:42.427Z,99317.96
2023-02-23T23:26:17.773Z,99318.23
2023-02-23T23:27:08.334Z,99313.42
2023-02-23T23:27:56.040Z,99314.61
2023-02-23T23:28:52.160Z,99312.48
2023-02-23T23:29:39.098Z,99314.40
2023-02-23T23:30:17.652Z,99308.21
2023-02-23T23:30:56.279Z,99307.52
2023-02-23T23:31:39.173Z,99309.60
2023-02-23T23:32:43.963Z,99307.27
2023-02-23T23:33:17.140Z,99301.83
2023-02-23T23:33:51.667Z,99304.48
2023-02-23T23:34:27.568Z,99303.91
2023-02-23T23:35:06.481Z,99303.25
2023-02-23T23:35:42.874Z,99303.20
2023-02-23T23:36:23.646Z,99299.79
2023-02-23T23:37:03.147Z,99300.11
2023-02-23T23:37:36.227Z,99300.41
2023-02-23T23:38:09.445Z,99298.15
2023-02-23T23:38:50.382Z,99295.91
2023-02-23T23:39:26.133Z,99295.32
2023-02-23T23:40:41.810Z,99295.00
2023-02-23T23:41:15.139Z,99295.60
2023-02-23T23:41:51.745Z,99290.81
2023-02-23T23:42:38.311Z,99290.42
2023-02-23T23:43:12.298Z,99289.98
2023-02-23T23:43:59.591Z,99284.89
2023-02-23T23:44:45.365Z,99280.83
2023-02-23T23:45:28.114Z,99280.02
2023-02-23T23:46:06.551Z,99285.55
2023-02-23T23:46:52.894Z,99283.65
2023-02-23T23:47:46.767Z,99277.14
2023-02-23T23:48:30.101Z,99271.83
2023-02-23T23:49:06.127Z,99273.72
2023-02-23T23:49:39.848Z,99271.17
2023-02-23T23:50:14.001Z,99270.73
2023-02-23T23:50:47.880Z,99274.79
2023-02-23T23:51:29.207Z,99271.05
2023-02-23T23:52:02.555Z,99267.62
2023-02-23T23:52:35.527Z,99272.39
2023-02-23T23:53:10.610Z,99266.97
2023-02-23T23:53:44.136Z,99261.88
2023-02-23T23:54:26.888Z,99265.56
2023-02-23T23:55:03.651Z,99264.30
2023-02-23T23:55:37.192Z,99265.27
2023-02-23T23:56:13.241Z,99261.86
2023-02-23T23:56:46.452Z,99263.53
2023-02-23T23:57:19.430Z,99264.77
2023-02-23T23:57:52.758Z,99260.98
2023-02-23T23:58:26.840Z,99263.68
2023-02-23T23:59:11.320Z,99266.23
2023-02-23T23:59:46.108Z,99257.02
